sensor_id;sensor_type;location;lat;lon;timestamp;temperature;humidity
2723;DHT22;1369;53.216;10.396;2023-05-09T00:02:04;11.70;97.60
2723;DHT22;1369;53.216;10.396;2023-05-09T00:04:30;11.70;98.40
2723;DHT22;1369;53.216;10.396;2023-05-09T00:06:57;11.60;98.00
2723;DHT22;1369;53.216;10.396;2023-05-09T00:09:22;11.60;98.60
2723;DHT22;1369;53.216;10.396;2023-05-09T00:11:48;11.60;98.10
2723;DHT22;1369;53.216;10.396;2023-05-09T00:14:13;11.60;99.90
2723;DHT22;1369;53.216;10.396;2023-05-09T00:16:39;11.50;99.00
2723;DHT22;1369;53.216;10.396;2023-05-09T00:19:04;11.50;97.90
2723;DHT22;1369;53.216;10.396;2023-05-09T00:21:31;11.50;99.10
2723;DHT22;1369;53.216;10.396;2023-05-09T00:23:56;11.50;98.20
2723;DHT22;1369;53.216;10.396;2023-05-09T00:26:23;11.50;99.50
2723;DHT22;1369;53.216;10.396;2023-05-09T00:28:48;11.40;99.30
2723;DHT22;1369;53.216;10.396;2023-05-09T00:31:14;11.30;99.90
2723;DHT22;1369;53.216;10.396;2023-05-09T00:33:39;11.30;99.90
2723;DHT22;1369;53.216;10.396;2023-05-09T00:36:05;11.20;99.90
2723;DHT22;1369;53.216;10.396;2023-05-09T00:38:31;11.20;99.70
2723;DHT22;1369;53.216;10.396;2023-05-09T00:40:56;11.20;99.90
2723;DHT22;1369;53.216;10.396;2023-05-09T00:43:22;11.20;99.80
2723;DHT22;1369;53.216;10.396;2023-05-09T00:45:48;11.20;99.40
2723;DHT22;1369;53.216;10.396;2023-05-09T00:48:14;11.20;99.40
2723;DHT22;1369;53.216;10.396;2023-05-09T00:50:40;11.10;99.90
2723;DHT22;1369;53.216;10.396;2023-05-09T00:53:06;11.10;99.90
2723;DHT22;1369;53.216;10.396;2023-05-09T00:55:32;11.10;99.90
2723;DHT22;1369;53.216;10.396;2023-05-09T00:57:58;11.00;99.90
2723;DHT22;1369;53.216;10.396;2023-05-09T01:00:23;11.10;99.50
2723;DHT22;1369;53.216;10.396;2023-05-09T01:02:52;11.00;99.90
2723;DHT22;1369;53.216;10.396;2023-05-09T01:05:19;11.00;99.90
2723;DHT22;1369;53.216;10.396;2023-05-09T01:08:06;10.90;99.90
2723;DHT22;1369;53.216;10.396;2023-05-09T01:13:51;10.70;99.90
2723;DHT22;1369;53.216;10.396;2023-05-09T01:16:25;10.70;99.90
2723;DHT22;1369;53.216;10.396;2023-05-09T01:19:09;10.70;99.90
2723;DHT22;1369;53.216;10.396;2023-05-09T01:21:43;10.70;99.90
2723;DHT22;1369;53.216;10.396;2023-05-09T01:30:02;10.50;99.90
2723;DHT22;1369;53.216;10.396;2023-05-09T01:32:30;10.40;99.90
2723;DHT22;1369;53.216;10.396;2023-05-09T01:35:00;10.30;99.90
2723;DHT22;1369;53.216;10.396;2023-05-09T01:37:29;10.30;99.90
2723;DHT22;1369;53.216;10.396;2023-05-09T01:39:59;10.30;99.90
2723;DHT22;1369;53.216;10.396;2023-05-09T01:42:30;10.20;99.90
2723;DHT22;1369;53.216;10.396;2023-05-09T01:44:56;10.10;99.90
2723;DHT22;1369;53.216;10.396;2023-05-09T01:47:23;10.10;99.90
2723;DHT22;1369;53.216;10.396;2023-05-09T01:49:49;10.10;99.90
2723;DHT22;1369;53.216;10.396;2023-05-09T01:52:17;10.00;99.90
2723;DHT22;1369;53.216;10.396;2023-05-09T01:54:44;10.00;99.90
2723;DHT22;1369;53.216;10.396;2023-05-09T01:57:10;10.00;99.90
2723;DHT22;1369;53.216;10.396;2023-05-09T01:59:41;10.00;99.90
2723;DHT22;1369;53.216;10.396;2023-05-09T02:02:08;10.00;99.90
2723;DHT22;1369;53.216;10.396;2023-05-09T02:04:35;9.90;99.90
2723;DHT22;1369;53.216;10.396;2023-05-09T02:07:01;10.00;99.90
2723;DHT22;1369;53.216;10.396;2023-05-09T02:09:28;10.00;99.90
2723;DHT22;1369;53.216;10.396;2023-05-09T02:11:53;9.90;99.90
2723;DHT22;1369;53.216;10.396;2023-05-09T02:14:19;10.00;99.90
2723;DHT22;1369;53.216;10.396;2023-05-09T02:16:44;10.00;99.90
2723;DHT22;1369;53.216;10.396;2023-05-09T02:19:10;9.90;99.90
2723;DHT22;1369;53.216;10.396;2023-05-09T02:21:36;9.90;99.90
2723;DHT22;1369;53.216;10.396;2023-05-09T02:24:01;9.90;99.90
2723;DHT22;1369;53.216;10.396;2023-05-09T02:26:28;9.90;99.90
2723;DHT22;1369;53.216;10.396;2023-05-09T02:28:54;9.80;99.90
2723;DHT22;1369;53.216;10.396;2023-05-09T02:31:21;9.80;99.90
2723;DHT22;1369;53.216;10.396;2023-05-09T02:33:48;9.90;99.90
2723;DHT22;1369;53.216;10.396;2023-05-09T02:36:14;9.80;99.90
2723;DHT22;1369;53.216;10.396;2023-05-09T02:38:41;9.80;99.90
2723;DHT22;1369;53.216;10.396;2023-05-09T02:41:11;9.80;99.90
2723;DHT22;1369;53.216;10.396;2023-05-09T02:43:37;9.80;99.90
2723;DHT22;1369;53.216;10.396;2023-05-09T02:46:02;9.80;99.90
2723;DHT22;1369;53.216;10.396;2023-05-09T02:48:28;9.80;99.90
2723;DHT22;1369;53.216;10.396;2023-05-09T02:50:54;9.70;99.90
2723;DHT22;1369;53.216;10.396;2023-05-09T02:53:19;9.70;99.90
2723;DHT22;1369;53.216;10.396;2023-05-09T02:55:45;9.60;99.90
2723;DHT22;1369;53.216;10.396;2023-05-09T02:58:10;9.70;99.90
2723;DHT22;1369;53.216;10.396;2023-05-09T03:00:36;9.70;99.90
2723;DHT22;1369;53.216;10.396;2023-05-09T03:03:01;9.60;99.90
2723;DHT22;1369;53.216;10.396;2023-05-09T03:05:27;9.60;99.90
2723;DHT22;1369;53.216;10.396;2023-05-09T03:07:52;9.60;99.90
2723;DHT22;1369;53.216;10.396;2023-05-09T03:10:18;9.60;99.90
2723;DHT22;1369;53.216;10.396;2023-05-09T03:12:43;9.60;99.90
2723;DHT22;1369;53.216;10.396;2023-05-09T03:15:09;9.50;99.90
2723;DHT22;1369;53.216;10.396;2023-05-09T03:17:35;9.60;99.90
2723;DHT22;1369;53.216;10.396;2023-05-09T03:20:00;9.60;99.90
2723;DHT22;1369;53.216;10.396;2023-05-09T03:22:26;9.50;99.90
2723;DHT22;1369;53.216;10.396;2023-05-09T03:24:51;9.40;99.90
2723;DHT22;1369;53.216;10.396;2023-05-09T03:27:17;9.50;99.90
2723;DHT22;1369;53.216;10.396;2023-05-09T03:29:42;9.50;99.90
2723;DHT22;1369;53.216;10.396;2023-05-09T03:32:08;9.40;99.90
2723;DHT22;1369;53.216;10.396;2023-05-09T03:34:33;9.40;99.90
2723;DHT22;1369;53.216;10.396;2023-05-09T03:36:59;9.40;99.90
2723;DHT22;1369;53.216;10.396;2023-05-09T03:39:24;9.40;99.90
2723;DHT22;1369;53.216;10.396;2023-05-09T03:41:50;9.40;99.90
2723;DHT22;1369;53.216;10.396;2023-05-09T03:44:16;9.40;99.90
2723;DHT22;1369;53.216;10.396;2023-05-09T03:46:41;9.20;99.90
2723;DHT22;1369;53.216;10.396;2023-05-09T03:49:07;9.30;99.90
2723;DHT22;1369;53.216;10.396;2023-05-09T03:51:32;9.30;99.90
2723;DHT22;1369;53.216;10.396;2023-05-09T03:53:58;9.20;99.90
2723;DHT22;1369;53.216;10.396;2023-05-09T03:56:23;9.20;99.90
2723;DHT22;1369;53.216;10.396;2023-05-09T03:58:49;9.20;99.90
2723;DHT22;1369;53.216;10.396;2023-05-09T04:01:15;9.10;99.90
2723;DHT22;1369;53.216;10.396;2023-05-09T04:03:40;9.20;99.90
2723;DHT22;1369;53.216;10.396;2023-05-09T04:06:06;9.20;99.90
2723;DHT22;1369;53.216;10.396;2023-05-09T04:08:32;9.20;99.90
2723;DHT22;1369;53.216;10.396;2023-05-09T04:10:58;9.20;99.90
2723;DHT22;1369;53.216;10.396;2023-05-09T04:13:24;9.20;99.90
2723;DHT22;1369;53.216;10.396;2023-05-09T04:15:49;9.30;99.90
2723;DHT22;1369;53.216;10.396;2023-05-09T04:18:15;9.30;99.90
2723;DHT22;1369;53.216;10.396;2023-05-09T04:20:41;9.40;99.90
2723;DHT22;1369;53.216;10.396;2023-05-09T04:23:06;9.40;99.90
2723;DHT22;1369;53.216;10.396;2023-05-09T04:25:32;9.40;99.90
2723;DHT22;1369;53.216;10.396;2023-05-09T04:27:58;9.40;99.90
2723;DHT22;1369;53.216;10.396;2023-05-09T04:30:24;9.40;99.90
2723;DHT22;1369;53.216;10.396;2023-05-09T04:32:51;9.50;99.90
2723;DHT22;1369;53.216;10.396;2023-05-09T04:35:18;9.40;99.90
2723;DHT22;1369;53.216;10.396;2023-05-09T04:37:43;9.40;99.90
2723;DHT22;1369;53.216;10.396;2023-05-09T04:40:09;9.40;99.90
2723;DHT22;1369;53.216;10.396;2023-05-09T04:42:35;9.40;99.90
2723;DHT22;1369;53.216;10.396;2023-05-09T04:45:01;9.40;99.90
2723;DHT22;1369;53.216;10.396;2023-05-09T04:47:27;9.40;99.90
2723;DHT22;1369;53.216;10.396;2023-05-09T04:49:52;9.50;99.90
2723;DHT22;1369;53.216;10.396;2023-05-09T04:52:18;9.50;99.90
2723;DHT22;1369;53.216;10.396;2023-05-09T04:54:43;9.60;99.90
2723;DHT22;1369;53.216;10.396;2023-05-09T04:57:09;9.60;99.90
2723;DHT22;1369;53.216;10.396;2023-05-09T04:59:35;9.60;99.90
2723;DHT22;1369;53.216;10.396;2023-05-09T05:02:01;9.60;99.90
2723;DHT22;1369;53.216;10.396;2023-05-09T05:04:27;9.70;99.90
2723;DHT22;1369;53.216;10.396;2023-05-09T05:06:53;9.70;99.90
2723;DHT22;1369;53.216;10.396;2023-05-09T05:09:18;9.70;99.90
2723;DHT22;1369;53.216;10.396;2023-05-09T05:11:44;9.80;99.90
2723;DHT22;1369;53.216;10.396;2023-05-09T05:14:10;9.80;99.90
2723;DHT22;1369;53.216;10.396;2023-05-09T05:16:35;9.80;99.90
2723;DHT22;1369;53.216;10.396;2023-05-09T05:19:01;9.90;99.90
2723;DHT22;1369;53.216;10.396;2023-05-09T05:21:26;10.00;99.90
2723;DHT22;1369;53.216;10.396;2023-05-09T05:23:52;10.00;99.90
2723;DHT22;1369;53.216;10.396;2023-05-09T05:26:17;10.00;99.90
2723;DHT22;1369;53.216;10.396;2023-05-09T05:28:42;10.10;99.90
2723;DHT22;1369;53.216;10.396;2023-05-09T05:31:08;10.20;99.90
2723;DHT22;1369;53.216;10.396;2023-05-09T05:33:33;10.30;99.90
2723;DHT22;1369;53.216;10.396;2023-05-09T05:35:59;10.30;99.90
2723;DHT22;1369;53.216;10.396;2023-05-09T05:38:24;10.40;99.90
2723;DHT22;1369;53.216;10.396;2023-05-09T05:40:50;10.40;99.90
2723;DHT22;1369;53.216;10.396;2023-05-09T05:43:15;10.40;99.90
2723;DHT22;1369;53.216;10.396;2023-05-09T05:45:41;10.50;99.90
2723;DHT22;1369;53.216;10.396;2023-05-09T05:48:06;10.60;99.90
2723;DHT22;1369;53.216;10.396;2023-05-09T05:50:32;10.70;99.90
2723;DHT22;1369;53.216;10.396;2023-05-09T05:52:58;10.80;99.90
2723;DHT22;1369;53.216;10.396;2023-05-09T05:55:23;10.80;99.90
2723;DHT22;1369;53.216;10.396;2023-05-09T05:57:49;10.90;99.90
2723;DHT22;1369;53.216;10.396;2023-05-09T06:00:15;10.90;99.90
2723;DHT22;1369;53.216;10.396;2023-05-09T06:02:41;11.00;99.90
2723;DHT22;1369;53.216;10.396;2023-05-09T06:05:10;11.20;99.90
2723;DHT22;1369;53.216;10.396;2023-05-09T06:07:36;11.30;99.90
2723;DHT22;1369;53.216;10.396;2023-05-09T06:10:02;11.30;99.90
2723;DHT22;1369;53.216;10.396;2023-05-09T06:12:28;11.40;99.90
2723;DHT22;1369;53.216;10.396;2023-05-09T06:14:54;11.50;99.90
2723;DHT22;1369;53.216;10.396;2023-05-09T06:17:20;11.60;99.90
2723;DHT22;1369;53.216;10.396;2023-05-09T06:19:45;11.70;99.90
2723;DHT22;1369;53.216;10.396;2023-05-09T06:22:11;11.70;99.90
2723;DHT22;1369;53.216;10.396;2023-05-09T06:24:36;11.80;99.90
2723;DHT22;1369;53.216;10.396;2023-05-09T06:27:02;11.80;99.90
2723;DHT22;1369;53.216;10.396;2023-05-09T06:29:27;11.90;99.90
2723;DHT22;1369;53.216;10.396;2023-05-09T06:31:53;12.00;99.90
2723;DHT22;1369;53.216;10.396;2023-05-09T06:34:18;12.10;99.90
2723;DHT22;1369;53.216;10.396;2023-05-09T06:36:44;12.10;99.90
2723;DHT22;1369;53.216;10.396;2023-05-09T06:39:09;12.20;99.90
2723;DHT22;1369;53.216;10.396;2023-05-09T06:41:35;12.30;99.90
2723;DHT22;1369;53.216;10.396;2023-05-09T06:44:00;12.50;99.90
2723;DHT22;1369;53.216;10.396;2023-05-09T06:46:27;12.80;99.90
2723;DHT22;1369;53.216;10.396;2023-05-09T06:48:52;13.00;99.90
2723;DHT22;1369;53.216;10.396;2023-05-09T06:51:18;13.00;99.90
2723;DHT22;1369;53.216;10.396;2023-05-09T06:53:44;12.90;99.90
2723;DHT22;1369;53.216;10.396;2023-05-09T06:56:09;13.10;99.90
2723;DHT22;1369;53.216;10.396;2023-05-09T06:58:35;13.50;99.90
2723;DHT22;1369;53.216;10.396;2023-05-09T07:01:01;13.80;99.90
2723;DHT22;1369;53.216;10.396;2023-05-09T07:03:26;14.60;99.90
2723;DHT22;1369;53.216;10.396;2023-05-09T07:05:52;15.10;99.90
2723;DHT22;1369;53.216;10.396;2023-05-09T07:08:17;16.00;99.90
2723;DHT22;1369;53.216;10.396;2023-05-09T07:10:43;16.70;99.90
2723;DHT22;1369;53.216;10.396;2023-05-09T07:13:09;18.20;99.90
2723;DHT22;1369;53.216;10.396;2023-05-09T07:15:34;19.90;99.90
2723;DHT22;1369;53.216;10.396;2023-05-09T07:18:00;22.00;99.90
2723;DHT22;1369;53.216;10.396;2023-05-09T07:20:25;23.40;98.50
2723;DHT22;1369;53.216;10.396;2023-05-09T07:22:51;24.10;96.60
2723;DHT22;1369;53.216;10.396;2023-05-09T07:25:16;24.00;94.30
2723;DHT22;1369;53.216;10.396;2023-05-09T07:27:42;24.40;92.10
2723;DHT22;1369;53.216;10.396;2023-05-09T07:30:07;24.90;92.00
2723;DHT22;1369;53.216;10.396;2023-05-09T07:32:34;25.10;90.10
2723;DHT22;1369;53.216;10.396;2023-05-09T07:34:59;25.40;89.50
2723;DHT22;1369;53.216;10.396;2023-05-09T07:37:25;25.90;88.50
2723;DHT22;1369;53.216;10.396;2023-05-09T07:39:51;26.20;87.30
2723;DHT22;1369;53.216;10.396;2023-05-09T07:42:16;26.60;89.50
2723;DHT22;1369;53.216;10.396;2023-05-09T07:44:42;27.40;84.90
2723;DHT22;1369;53.216;10.396;2023-05-09T07:47:07;27.80;81.60
2723;DHT22;1369;53.216;10.396;2023-05-09T07:49:34;28.00;78.80
2723;DHT22;1369;53.216;10.396;2023-05-09T07:52:00;27.20;76.30
2723;DHT22;1369;53.216;10.396;2023-05-09T07:54:25;27.60;78.70
2723;DHT22;1369;53.216;10.396;2023-05-09T07:56:51;26.60;75.50
2723;DHT22;1369;53.216;10.396;2023-05-09T07:59:16;25.70;77.80
2723;DHT22;1369;53.216;10.396;2023-05-09T08:01:42;24.10;76.40
2723;DHT22;1369;53.216;10.396;2023-05-09T08:04:08;23.50;81.00
2723;DHT22;1369;53.216;10.396;2023-05-09T08:06:34;23.00;81.10
2723;DHT22;1369;53.216;10.396;2023-05-09T08:09:00;22.50;80.80
2723;DHT22;1369;53.216;10.396;2023-05-09T08:11:25;21.50;81.80
2723;DHT22;1369;53.216;10.396;2023-05-09T08:13:52;21.60;83.50
2723;DHT22;1369;53.216;10.396;2023-05-09T08:16:18;21.80;84.10
2723;DHT22;1369;53.216;10.396;2023-05-09T08:18:44;21.80;84.40
2723;DHT22;1369;53.216;10.396;2023-05-09T08:21:09;22.80;84.10
2723;DHT22;1369;53.216;10.396;2023-05-09T08:23:35;23.80;81.20
2723;DHT22;1369;53.216;10.396;2023-05-09T08:26:00;24.50;81.70
2723;DHT22;1369;53.216;10.396;2023-05-09T08:28:26;25.30;79.90
2723;DHT22;1369;53.216;10.396;2023-05-09T08:30:53;26.00;78.40
2723;DHT22;1369;53.216;10.396;2023-05-09T08:33:18;26.20;77.50
2723;DHT22;1369;53.216;10.396;2023-05-09T08:35:44;25.90;73.50
2723;DHT22;1369;53.216;10.396;2023-05-09T08:38:10;25.80;74.60
2723;DHT22;1369;53.216;10.396;2023-05-09T08:40:36;25.70;74.30
2723;DHT22;1369;53.216;10.396;2023-05-09T08:43:05;25.80;75.40
2723;DHT22;1369;53.216;10.396;2023-05-09T08:45:55;25.40;74.80
2723;DHT22;1369;53.216;10.396;2023-05-09T08:48:20;25.70;74.50
2723;DHT22;1369;53.216;10.396;2023-05-09T08:50:47;25.70;73.00
2723;DHT22;1369;53.216;10.396;2023-05-09T08:53:13;25.30;73.70
2723;DHT22;1369;53.216;10.396;2023-05-09T08:55:38;23.80;72.10
2723;DHT22;1369;53.216;10.396;2023-05-09T08:58:04;23.50;75.30
2723;DHT22;1369;53.216;10.396;2023-05-09T09:00:30;23.40;75.50
2723;DHT22;1369;53.216;10.396;2023-05-09T09:03:00;23.60;75.70
2723;DHT22;1369;53.216;10.396;2023-05-09T09:05:27;23.80;77.10
2723;DHT22;1369;53.216;10.396;2023-05-09T09:07:54;23.80;73.70
2723;DHT22;1369;53.216;10.396;2023-05-09T09:10:21;23.90;74.40
2723;DHT22;1369;53.216;10.396;2023-05-09T09:12:52;23.60;75.50
2723;DHT22;1369;53.216;10.396;2023-05-09T09:15:19;23.80;76.70
2723;DHT22;1369;53.216;10.396;2023-05-09T09:17:47;24.20;76.30
2723;DHT22;1369;53.216;10.396;2023-05-09T09:20:15;24.10;74.10
2723;DHT22;1369;53.216;10.396;2023-05-09T09:22:43;24.40;75.30
2723;DHT22;1369;53.216;10.396;2023-05-09T09:25:12;24.30;72.90
2723;DHT22;1369;53.216;10.396;2023-05-09T09:27:37;24.10;74.00
2723;DHT22;1369;53.216;10.396;2023-05-09T09:30:07;23.80;73.80
2723;DHT22;1369;53.216;10.396;2023-05-09T09:32:34;23.70;75.40
2723;DHT22;1369;53.216;10.396;2023-05-09T09:35:07;23.80;76.40
2723;DHT22;1369;53.216;10.396;2023-05-09T09:37:34;23.50;73.00
2723;DHT22;1369;53.216;10.396;2023-05-09T09:40:01;23.60;75.50
2723;DHT22;1369;53.216;10.396;2023-05-09T09:42:39;23.70;73.80
2723;DHT22;1369;53.216;10.396;2023-05-09T09:45:09;23.60;72.90
2723;DHT22;1369;53.216;10.396;2023-05-09T09:47:36;23.40;72.50
2723;DHT22;1369;53.216;10.396;2023-05-09T09:50:11;23.30;74.50
2723;DHT22;1369;53.216;10.396;2023-05-09T09:52:53;23.40;76.60
2723;DHT22;1369;53.216;10.396;2023-05-09T09:55:21;23.50;74.40
2723;DHT22;1369;53.216;10.396;2023-05-09T09:57:47;23.30;74.00
2723;DHT22;1369;53.216;10.396;2023-05-09T10:00:14;23.30;76.50
2723;DHT22;1369;53.216;10.396;2023-05-09T10:02:51;23.50;75.20
2723;DHT22;1369;53.216;10.396;2023-05-09T10:05:24;23.40;75.80
2723;DHT22;1369;53.216;10.396;2023-05-09T10:07:53;23.60;75.90
2723;DHT22;1369;53.216;10.396;2023-05-09T10:10:20;23.80;74.70
2723;DHT22;1369;53.216;10.396;2023-05-09T10:12:46;23.90;75.40
2723;DHT22;1369;53.216;10.396;2023-05-09T10:15:15;23.90;74.40
2723;DHT22;1369;53.216;10.396;2023-05-09T10:17:43;23.40;73.50
2723;DHT22;1369;53.216;10.396;2023-05-09T10:20:09;23.60;75.20
2723;DHT22;1369;53.216;10.396;2023-05-09T10:22:38;23.50;73.40
2723;DHT22;1369;53.216;10.396;2023-05-09T10:25:06;23.10;72.50
2723;DHT22;1369;53.216;10.396;2023-05-09T10:27:37;22.90;73.40
2723;DHT22;1369;53.216;10.396;2023-05-09T10:30:07;22.90;74.90
2723;DHT22;1369;53.216;10.396;2023-05-09T10:32:42;23.10;75.20
2723;DHT22;1369;53.216;10.396;2023-05-09T10:35:10;23.10;73.60
2723;DHT22;1369;53.216;10.396;2023-05-09T10:37:38;22.90;74.60
2723;DHT22;1369;53.216;10.396;2023-05-09T10:40:04;22.90;73.70
2723;DHT22;1369;53.216;10.396;2023-05-09T10:42:30;22.60;73.60
2723;DHT22;1369;53.216;10.396;2023-05-09T10:44:56;22.40;74.60
2723;DHT22;1369;53.216;10.396;2023-05-09T10:47:26;22.30;74.20
2723;DHT22;1369;53.216;10.396;2023-05-09T10:49:52;22.10;74.60
2723;DHT22;1369;53.216;10.396;2023-05-09T10:52:20;21.90;75.00
2723;DHT22;1369;53.216;10.396;2023-05-09T10:54:57;21.90;75.40
2723;DHT22;1369;53.216;10.396;2023-05-09T10:57:25;21.80;74.50
2723;DHT22;1369;53.216;10.396;2023-05-09T10:59:52;21.60;73.70
2723;DHT22;1369;53.216;10.396;2023-05-09T11:02:19;21.80;76.50
2723;DHT22;1369;53.216;10.396;2023-05-09T11:04:45;21.60;75.10
2723;DHT22;1369;53.216;10.396;2023-05-09T11:07:24;21.60;75.70
2723;DHT22;1369;53.216;10.396;2023-05-09T11:10:08;21.90;77.80
2723;DHT22;1369;53.216;10.396;2023-05-09T11:12:33;22.30;78.50
2723;DHT22;1369;53.216;10.396;2023-05-09T11:15:06;22.20;76.30
2723;DHT22;1369;53.216;10.396;2023-05-09T11:17:37;22.10;75.20
2723;DHT22;1369;53.216;10.396;2023-05-09T11:20:04;22.00;76.40
2723;DHT22;1369;53.216;10.396;2023-05-09T11:22:43;22.00;75.70
2723;DHT22;1369;53.216;10.396;2023-05-09T11:25:13;22.00;75.30
2723;DHT22;1369;53.216;10.396;2023-05-09T11:27:42;21.80;74.00
2723;DHT22;1369;53.216;10.396;2023-05-09T11:30:10;22.00;76.60
2723;DHT22;1369;53.216;10.396;2023-05-09T11:32:44;22.10;76.70
2723;DHT22;1369;53.216;10.396;2023-05-09T11:35:10;22.30;75.40
2723;DHT22;1369;53.216;10.396;2023-05-09T11:37:44;22.50;76.60
2723;DHT22;1369;53.216;10.396;2023-05-09T11:40:12;22.60;75.60
2723;DHT22;1369;53.216;10.396;2023-05-09T11:42:42;22.60;76.20
2723;DHT22;1369;53.216;10.396;2023-05-09T11:45:10;22.80;74.30
2723;DHT22;1369;53.216;10.396;2023-05-09T11:47:36;22.50;72.40
2723;DHT22;1369;53.216;10.396;2023-05-09T11:50:04;22.60;73.50
2723;DHT22;1369;53.216;10.396;2023-05-09T11:52:31;22.60;74.80
2723;DHT22;1369;53.216;10.396;2023-05-09T11:54:57;22.60;73.30
2723;DHT22;1369;53.216;10.396;2023-05-09T11:57:23;22.60;73.80
2723;DHT22;1369;53.216;10.396;2023-05-09T11:59:49;22.60;74.20
2723;DHT22;1369;53.216;10.396;2023-05-09T12:02:14;22.50;72.20
2723;DHT22;1369;53.216;10.396;2023-05-09T12:04:40;22.30;73.50
2723;DHT22;1369;53.216;10.396;2023-05-09T12:07:06;22.30;71.60
2723;DHT22;1369;53.216;10.396;2023-05-09T12:09:32;22.30;71.50
2723;DHT22;1369;53.216;10.396;2023-05-09T12:11:59;22.40;74.40
2723;DHT22;1369;53.216;10.396;2023-05-09T12:14:29;22.50;73.30
2723;DHT22;1369;53.216;10.396;2023-05-09T12:16:56;22.50;71.60
2723;DHT22;1369;53.216;10.396;2023-05-09T12:19:25;22.40;71.30
2723;DHT22;1369;53.216;10.396;2023-05-09T12:21:58;22.40;70.20
2723;DHT22;1369;53.216;10.396;2023-05-09T12:24:25;22.30;71.00
2723;DHT22;1369;53.216;10.396;2023-05-09T12:26:55;22.20;71.30
2723;DHT22;1369;53.216;10.396;2023-05-09T12:29:23;22.30;70.30
2723;DHT22;1369;53.216;10.396;2023-05-09T12:31:49;22.40;70.70
2723;DHT22;1369;53.216;10.396;2023-05-09T12:34:15;22.50;71.00
2723;DHT22;1369;53.216;10.396;2023-05-09T12:36:43;22.60;72.00
2723;DHT22;1369;53.216;10.396;2023-05-09T12:39:15;22.70;71.30
2723;DHT22;1369;53.216;10.396;2023-05-09T12:41:50;22.90;70.60
2723;DHT22;1369;53.216;10.396;2023-05-09T12:44:20;22.70;69.40
2723;DHT22;1369;53.216;10.396;2023-05-09T12:46:57;22.70;71.30
2723;DHT22;1369;53.216;10.396;2023-05-09T12:49:23;22.70;70.50
2723;DHT22;1369;53.216;10.396;2023-05-09T12:51:49;22.60;69.50
2723;DHT22;1369;53.216;10.396;2023-05-09T12:54:22;22.50;70.20
2723;DHT22;1369;53.216;10.396;2023-05-09T12:56:48;22.60;70.50
2723;DHT22;1369;53.216;10.396;2023-05-09T12:59:23;22.60;70.40
2723;DHT22;1369;53.216;10.396;2023-05-09T13:01:53;22.60;71.90
2723;DHT22;1369;53.216;10.396;2023-05-09T13:04:19;22.80;73.10
2723;DHT22;1369;53.216;10.396;2023-05-09T13:06:54;23.00;71.50
2723;DHT22;1369;53.216;10.396;2023-05-09T13:09:24;23.10;70.40
2723;DHT22;1369;53.216;10.396;2023-05-09T13:11:51;22.90;68.50
2723;DHT22;1369;53.216;10.396;2023-05-09T13:14:21;22.90;68.40
2723;DHT22;1369;53.216;10.396;2023-05-09T13:16:47;22.90;68.80
2723;DHT22;1369;53.216;10.396;2023-05-09T13:19:12;22.70;69.90
2723;DHT22;1369;53.216;10.396;2023-05-09T13:21:38;22.80;71.00
2723;DHT22;1369;53.216;10.396;2023-05-09T13:24:04;22.90;69.50
2723;DHT22;1369;53.216;10.396;2023-05-09T13:26:30;22.80;69.00
2723;DHT22;1369;53.216;10.396;2023-05-09T13:28:55;22.80;70.00
2723;DHT22;1369;53.216;10.396;2023-05-09T13:31:21;22.80;68.50
2723;DHT22;1369;53.216;10.396;2023-05-09T13:33:48;22.70;68.50
2723;DHT22;1369;53.216;10.396;2023-05-09T13:36:13;22.50;67.30
2723;DHT22;1369;53.216;10.396;2023-05-09T13:38:39;22.40;68.80
2723;DHT22;1369;53.216;10.396;2023-05-09T13:41:08;22.40;69.50
2723;DHT22;1369;53.216;10.396;2023-05-09T13:43:34;22.50;70.70
2723;DHT22;1369;53.216;10.396;2023-05-09T13:46:01;22.60;69.50
2723;DHT22;1369;53.216;10.396;2023-05-09T13:48:26;22.50;68.90
2723;DHT22;1369;53.216;10.396;2023-05-09T13:50:52;22.70;70.60
2723;DHT22;1369;53.216;10.396;2023-05-09T13:53:17;22.80;70.70
2723;DHT22;1369;53.216;10.396;2023-05-09T13:55:44;22.90;71.70
2723;DHT22;1369;53.216;10.396;2023-05-09T13:58:10;23.10;72.10
2723;DHT22;1369;53.216;10.396;2023-05-09T14:00:35;23.20;71.40
2723;DHT22;1369;53.216;10.396;2023-05-09T14:03:01;23.10;69.20
2723;DHT22;1369;53.216;10.396;2023-05-09T14:05:29;22.90;68.70
2723;DHT22;1369;53.216;10.396;2023-05-09T14:07:55;22.70;67.90
2723;DHT22;1369;53.216;10.396;2023-05-09T14:10:21;22.80;70.20
2723;DHT22;1369;53.216;10.396;2023-05-09T14:12:46;22.80;69.20
2723;DHT22;1369;53.216;10.396;2023-05-09T14:15:12;22.80;68.90
2723;DHT22;1369;53.216;10.396;2023-05-09T14:17:38;22.60;68.20
2723;DHT22;1369;53.216;10.396;2023-05-09T14:20:04;22.80;69.70
2723;DHT22;1369;53.216;10.396;2023-05-09T14:22:31;22.90;69.30
2723;DHT22;1369;53.216;10.396;2023-05-09T14:24:56;22.90;69.00
2723;DHT22;1369;53.216;10.396;2023-05-09T14:27:22;22.90;68.10
2723;DHT22;1369;53.216;10.396;2023-05-09T14:29:47;22.90;67.50
2723;DHT22;1369;53.216;10.396;2023-05-09T14:32:13;22.80;66.10
2723;DHT22;1369;53.216;10.396;2023-05-09T14:34:39;22.80;66.50
2723;DHT22;1369;53.216;10.396;2023-05-09T14:37:04;22.80;67.70
2723;DHT22;1369;53.216;10.396;2023-05-09T14:39:31;22.80;66.30
2723;DHT22;1369;53.216;10.396;2023-05-09T14:41:56;22.80;69.30
2723;DHT22;1369;53.216;10.396;2023-05-09T14:44:22;22.60;65.70
2723;DHT22;1369;53.216;10.396;2023-05-09T14:46:49;22.50;66.30
2723;DHT22;1369;53.216;10.396;2023-05-09T14:49:14;22.50;66.80
2723;DHT22;1369;53.216;10.396;2023-05-09T14:51:40;22.50;68.20
2723;DHT22;1369;53.216;10.396;2023-05-09T14:54:06;22.50;66.80
2723;DHT22;1369;53.216;10.396;2023-05-09T14:56:31;22.40;66.20
2723;DHT22;1369;53.216;10.396;2023-05-09T14:58:57;22.30;65.40
2723;DHT22;1369;53.216;10.396;2023-05-09T15:01:23;22.30;66.70
2723;DHT22;1369;53.216;10.396;2023-05-09T15:03:48;22.50;67.20
2723;DHT22;1369;53.216;10.396;2023-05-09T15:06:14;22.60;65.70
2723;DHT22;1369;53.216;10.396;2023-05-09T15:08:39;22.80;67.20
2723;DHT22;1369;53.216;10.396;2023-05-09T15:11:05;22.80;67.20
2723;DHT22;1369;53.216;10.396;2023-05-09T15:13:32;22.80;67.50
2723;DHT22;1369;53.216;10.396;2023-05-09T15:15:57;22.90;67.50
2723;DHT22;1369;53.216;10.396;2023-05-09T15:18:23;22.90;66.10
2723;DHT22;1369;53.216;10.396;2023-05-09T15:20:53;22.90;65.20
2723;DHT22;1369;53.216;10.396;2023-05-09T15:23:18;22.90;65.90
2723;DHT22;1369;53.216;10.396;2023-05-09T15:25:44;22.90;67.10
2723;DHT22;1369;53.216;10.396;2023-05-09T15:28:10;23.00;69.30
2723;DHT22;1369;53.216;10.396;2023-05-09T15:30:35;23.00;65.90
2723;DHT22;1369;53.216;10.396;2023-05-09T15:33:03;23.00;64.90
2723;DHT22;1369;53.216;10.396;2023-05-09T15:35:28;22.60;62.60
2723;DHT22;1369;53.216;10.396;2023-05-09T15:37:53;22.40;65.00
2723;DHT22;1369;53.216;10.396;2023-05-09T15:40:19;22.20;64.20
2723;DHT22;1369;53.216;10.396;2023-05-09T15:42:44;21.90;63.80
2723;DHT22;1369;53.216;10.396;2023-05-09T15:45:12;21.90;65.40
2723;DHT22;1369;53.216;10.396;2023-05-09T15:47:38;21.90;64.30
2723;DHT22;1369;53.216;10.396;2023-05-09T15:50:03;21.80;64.00
2723;DHT22;1369;53.216;10.396;2023-05-09T15:52:29;21.70;63.60
2723;DHT22;1369;53.216;10.396;2023-05-09T15:54:54;21.80;64.80
2723;DHT22;1369;53.216;10.396;2023-05-09T15:57:20;21.80;63.80